createdAt,value
2019-04-21T00:01:05.718Z,12.5856
2019-04-21T00:02:09.193Z,12.6711
2019-04-21T00:03:18.219Z,11.8940
2019-04-21T00:04:34.571Z,11.5976
2019-04-21T00:05:52.410Z,11.4294
2019-04-21T00:07:00.532Z,11.3867
2019-04-21T00:08:12.829Z,11.3573
2019-04-21T00:09:22.613Z,11.3439
2019-04-21T00:10:28.708Z,11.3733
2019-04-21T00:11:32.984Z,11.6804
2019-04-21T00:12:37.625Z,11.9928
2019-04-21T00:13:42.769Z,12.2759
2019-04-21T00:14:47.152Z,11.9661
2019-04-21T00:15:49.503Z,11.6670
2019-04-21T00:16:57.430Z,11.3573
2019-04-21T00:18:02.429Z,11.2318
2019-04-21T00:19:12.990Z,11.0769
2019-04-21T00:20:26.082Z,11.1757
2019-04-21T00:21:31.532Z,11.1330
2019-04-21T00:22:44.454Z,11.1463
2019-04-21T00:23:59.078Z,11.1624
2019-04-21T00:25:04.129Z,11.2451
2019-04-21T00:26:04.727Z,11.2745
2019-04-21T00:27:22.941Z,11.3573
2019-04-21T00:28:39.093Z,11.2585
2019-04-21T00:29:42.519Z,11.3146
2019-04-21T00:30:44.392Z,11.1463
2019-04-21T00:31:51.413Z,10.9487
2019-04-21T00:32:53.987Z,11.1036
2019-04-21T00:33:51.955Z,11.4000
2019-04-21T00:35:03.312Z,11.2318
2019-04-21T00:36:11.276Z,11.7819
2019-04-21T00:37:24.057Z,11.6964
2019-04-21T00:38:57.425Z,12.1477
2019-04-21T00:39:55.707Z,12.4735
2019-04-21T00:41:00.558Z,12.4014
2019-04-21T00:42:06.696Z,11.7952
2019-04-21T00:43:11.741Z,11.4561
2019-04-21T00:44:12.607Z,11.4427
2019-04-21T00:45:26.644Z,11.4561
2019-04-21T00:46:32.313Z,11.3867
2019-04-21T00:47:38.711Z,11.3733
2019-04-21T00:48:54.107Z,11.7819
2019-04-21T00:50:00.765Z,12.3159
2019-04-21T00:51:33.309Z,12.4334
2019-04-21T00:52:29.118Z,12.4468
2019-04-21T00:53:33.527Z,12.4601
2019-04-21T00:54:44.110Z,12.0783
2019-04-21T00:55:44.581Z,11.7552
2019-04-21T00:56:56.728Z,11.5682
2019-04-21T00:58:08.418Z,11.4988
2019-04-21T00:59:11.709Z,11.2745
2019-04-21T01:00:20.343Z,11.0903
2019-04-21T01:01:21.355Z,11.0903
2019-04-21T01:02:32.971Z,11.2184
2019-04-21T01:03:43.628Z,11.3146
2019-04-21T01:04:52.497Z,11.8807
2019-04-21T01:06:14.258Z,11.7819
2019-04-21T01:07:05.596Z,11.7952
2019-04-21T01:08:11.503Z,12.0222
2019-04-21T01:09:15.215Z,11.4427
2019-04-21T01:10:19.794Z,11.3733
2019-04-21T01:11:33.290Z,11.3867
2019-04-21T01:12:48.954Z,11.2184
2019-04-21T01:13:58.281Z,10.9754
2019-04-21T01:15:04.081Z,10.9194
2019-04-21T01:16:14.764Z,10.7218
2019-04-21T01:17:19.304Z,10.7778
2019-04-21T01:18:27.630Z,10.9327
2019-04-21T01:19:32.958Z,10.3132
2019-04-21T01:20:21.197Z,10.5535
2019-04-21T01:21:24.180Z,10.7378
2019-04-21T01:22:27.180Z,10.9754
2019-04-21T01:23:29.745Z,11.1757
2019-04-21T01:24:36.174Z,11.3733
2019-04-21T01:25:44.888Z,11.0048
2019-04-21T01:26:59.610Z,10.7938
2019-04-21T01:28:15.108Z,10.5535
2019-04-21T01:29:20.912Z,11.2879
2019-04-21T01:30:29.603Z,10.7084
2019-04-21T01:31:36.514Z,10.6950
2019-04-21T01:32:51.580Z,11.0048
2019-04-21T01:33:56.165Z,10.7938
2019-04-21T01:35:02.669Z,10.9327
2019-04-21T01:36:08.235Z,11.4988
2019-04-21T01:37:27.251Z,11.6537
2019-04-21T01:38:34.348Z,11.7391
2019-04-21T01:39:43.642Z,11.1624
2019-04-21T01:40:44.701Z,11.8112
2019-04-21T01:41:50.916Z,11.8807
2019-04-21T01:43:00.319Z,11.9795
2019-04-21T01:44:05.034Z,11.8940
2019-04-21T01:45:14.720Z,11.7391
2019-04-21T01:46:24.897Z,11.9368
2019-04-21T01:47:27.578Z,11.5682
2019-04-21T01:48:37.483Z,11.7552
2019-04-21T01:49:39.505Z,11.6243
2019-04-21T01:50:51.087Z,11.6537
2019-04-21T01:52:15.163Z,11.6110
2019-04-21T01:53:22.503Z,11.4988
2019-04-21T01:54:23.502Z,11.6670
2019-04-21T01:55:30.751Z,11.5843
2019-04-21T01:56:34.039Z,11.5255
2019-04-21T01:57:37.356Z,11.5255
2019-04-21T01:58:42.915Z,11.4134
2019-04-21T01:59:51.590Z,11.4294
2019-04-21T02:01:03.522Z,11.4000
2019-04-21T02:02:19.419Z,11.3012
2019-04-21T02:03:41.647Z,11.2745
2019-04-21T02:04:39.667Z,11.4134
2019-04-21T02:05:44.220Z,11.3012
2019-04-21T02:06:50.484Z,11.3146
2019-04-21T02:07:54.675Z,11.4000
2019-04-21T02:09:06.747Z,11.3439
2019-04-21T02:10:13.669Z,11.2318
2019-04-21T02:11:26.123Z,11.0903
2019-04-21T02:12:29.979Z,10.5402
2019-04-21T02:13:35.196Z,10.4414
2019-04-21T02:14:50.535Z,10.4120
2019-04-21T02:15:56.105Z,10.3853
2019-04-21T02:17:00.670Z,10.4120
2019-04-21T02:18:10.489Z,10.5535
2019-04-21T02:19:13.978Z,10.3265
2019-04-21T02:20:18.238Z,10.3853
2019-04-21T02:21:31.705Z,10.3719
2019-04-21T02:22:59.131Z,10.1850
2019-04-21T02:23:56.083Z,10.2411
2019-04-21T02:25:06.361Z,10.4120
2019-04-21T02:26:12.718Z,10.4681
2019-04-21T02:28:30.863Z,10.9754
2019-04-21T02:29:33.040Z,11.0636
2019-04-21T02:32:10.531Z,10.6950
2019-04-21T02:33:08.704Z,10.9621
2019-04-21T02:34:25.178Z,10.7218
2019-04-21T02:35:42.465Z,10.6657
2019-04-21T02:38:44.716Z,10.7218
2019-04-21T02:39:56.720Z,10.2411
2019-04-21T02:42:11.529Z,11.0475
2019-04-21T02:43:19.112Z,10.5829
2019-04-21T02:44:26.476Z,10.3132
2019-04-21T02:45:29.683Z,10.0729
2019-04-21T02:46:42.152Z,10.2277
2019-04-21T02:49:13.262Z,10.5962
2019-04-21T02:51:10.421Z,10.4841
2019-04-21T02:54:28.601Z,10.2838
2019-04-21T02:55:44.181Z,10.2411
2019-04-21T02:58:09.787Z,9.9180
2019-04-21T03:00:28.974Z,10.4681
2019-04-21T03:01:31.261Z,10.1289
2019-04-21T03:02:42.156Z,10.2411
2019-04-21T03:03:41.823Z,10.2277
2019-04-21T03:05:58.650Z,9.9874
2019-04-21T03:08:22.946Z,9.9180
2019-04-21T03:09:24.394Z,9.6349
2019-04-21T03:10:36.095Z,9.8619
2019-04-21T03:11:41.379Z,10.3853
2019-04-21T03:12:56.925Z,10.4280
2019-04-21T03:14:11.076Z,10.3399
2019-04-21T03:15:06.231Z,10.3399
2019-04-21T03:16:21.451Z,10.3532
2019-04-21T03:17:21.811Z,10.3719
2019-04-21T03:19:44.809Z,10.1984
2019-04-21T03:20:42.421Z,9.8619
2019-04-21T03:21:57.442Z,10.0595
2019-04-21T03:23:09.390Z,10.3265
2019-04-21T03:24:13.796Z,10.1423
2019-04-21T03:25:26.882Z,9.8913
2019-04-21T03:27:40.230Z,10.3399
2019-04-21T03:28:37.418Z,10.2411
2019-04-21T03:29:55.203Z,10.0862
2019-04-21T03:32:31.825Z,9.9180
2019-04-21T03:34:48.346Z,9.5628
2019-04-21T03:35:58.324Z,9.6937
2019-04-21T03:36:56.508Z,9.5789
2019-04-21T03:38:55.396Z,9.3812
2019-04-21T03:40:05.256Z,9.3946
2019-04-21T03:41:10.557Z,9.5789
2019-04-21T03:42:30.832Z,9.3946
2019-04-21T03:44:39.476Z,9.2958
2019-04-21T03:47:01.729Z,9.7070
2019-04-21T03:49:12.595Z,9.4507
2019-04-21T03:50:14.651Z,9.1276
2019-04-21T03:54:59.453Z,9.0448
2019-04-21T03:55:53.334Z,9.0021
2019-04-21T03:57:21.809Z,9.1142
2019-04-21T03:58:16.245Z,8.9460
2019-04-21T03:59:11.177Z,8.9593
2019-04-21T04:00:42.647Z,9.0021
2019-04-21T04:01:32.809Z,8.9273
2019-04-21T04:03:11.854Z,8.9727
2019-04-21T04:06:09.621Z,9.1569
2019-04-21T04:07:28.863Z,9.3252
2019-04-21T04:08:31.454Z,9.0448
2019-04-21T04:10:42.761Z,8.9593
2019-04-21T04:11:54.758Z,9.0581
2019-04-21T04:12:58.757Z,9.4079
2019-04-21T04:14:14.134Z,9.6483
2019-04-21T04:15:16.094Z,9.6937
2019-04-21T04:16:16.988Z,9.7925
2019-04-21T04:19:56.147Z,9.9313
2019-04-21T04:21:14.411Z,10.0034
2019-04-21T04:22:09.292Z,9.9313
2019-04-21T04:23:08.095Z,9.9741
2019-04-21T04:24:31.620Z,9.9741
2019-04-21T04:25:21.441Z,10.0595
2019-04-21T04:26:37.466Z,10.2411
2019-04-21T04:27:54.046Z,10.1022
2019-04-21T04:30:04.285Z,9.9180
2019-04-21T04:31:06.190Z,9.9607
2019-04-21T04:32:10.574Z,9.9741
2019-04-21T04:33:34.292Z,9.9180
2019-04-21T04:34:29.285Z,9.7765
2019-04-21T04:35:46.633Z,9.4240
2019-04-21T04:36:58.528Z,9.3812
2019-04-21T04:39:18.009Z,9.6937
2019-04-21T04:40:10.446Z,9.7498
2019-04-21T04:41:24.947Z,9.7765
2019-04-21T04:42:31.986Z,9.7631
2019-04-21T04:43:50.211Z,9.7631
2019-04-21T04:45:44.112Z,9.5361
2019-04-21T04:48:10.868Z,9.5922
2019-04-21T04:49:34.350Z,9.5628
2019-04-21T04:50:19.723Z,9.0715
2019-04-21T04:51:33.382Z,9.6056
2019-04-21T04:52:38.317Z,9.6616
2019-04-21T04:53:44.030Z,9.4079
2019-04-21T04:54:55.050Z,9.8058
2019-04-21T04:56:03.686Z,9.7498
2019-04-21T04:58:26.014Z,9.7925
2019-04-21T04:59:32.531Z,9.7925
2019-04-21T05:00:36.947Z,9.4373
2019-04-21T05:02:05.027Z,9.6616
2019-04-21T05:02:48.389Z,9.6616
2019-04-21T05:04:01.870Z,10.1423
2019-04-21T05:06:26.097Z,9.9607
2019-04-21T05:07:27.444Z,9.8753
2019-04-21T05:08:49.341Z,9.9874
2019-04-21T05:12:58.704Z,10.3399
2019-04-21T05:15:12.653Z,10.3265
2019-04-21T05:16:36.606Z,10.1850
2019-04-21T05:18:50.279Z,10.1423
2019-04-21T05:20:05.450Z,10.1717
2019-04-21T05:21:10.573Z,10.1423
2019-04-21T05:22:05.526Z,10.1289
2019-04-21T05:23:08.998Z,10.1717
2019-04-21T05:24:13.563Z,10.3132
2019-04-21T05:25:19.556Z,10.3265
2019-04-21T05:26:24.622Z,10.2838
2019-04-21T05:27:32.049Z,9.9313
2019-04-21T05:29:59.985Z,10.2838
2019-04-21T05:31:09.074Z,10.4120
2019-04-21T05:32:18.465Z,10.4681
2019-04-21T05:33:20.858Z,10.4120
2019-04-21T05:34:29.038Z,10.5669
2019-04-21T05:35:34.402Z,10.6790
2019-04-21T05:36:38.168Z,10.6390
2019-04-21T05:37:50.323Z,10.6950
2019-04-21T05:38:56.615Z,10.5535
2019-04-21T05:39:57.966Z,10.6950
2019-04-21T05:41:05.122Z,10.8072
2019-04-21T05:42:08.869Z,10.6390
2019-04-21T05:43:28.455Z,10.7645
2019-04-21T05:44:41.420Z,10.8206
2019-04-21T05:45:48.786Z,10.6950
2019-04-21T05:46:59.464Z,10.7938
2019-04-21T05:48:11.624Z,10.9487
2019-04-21T05:49:10.778Z,10.8072
2019-04-21T05:50:11.455Z,10.7645
2019-04-21T05:51:20.509Z,11.0769
2019-04-21T05:52:26.583Z,10.8900
2019-04-21T05:53:36.250Z,10.9487
2019-04-21T05:56:01.719Z,10.8206
2019-04-21T05:57:05.805Z,10.8766
2019-04-21T05:58:27.267Z,11.2184
2019-04-21T05:59:21.693Z,11.2879
2019-04-21T06:00:39.416Z,11.4134
2019-04-21T06:01:44.572Z,11.3146
2019-04-21T06:02:52.035Z,11.2879
2019-04-21T06:04:00.217Z,11.3733
2019-04-21T06:05:18.412Z,11.5549
2019-04-21T06:06:14.001Z,11.4427
2019-04-21T06:07:23.086Z,11.1196
2019-04-21T06:08:25.538Z,11.4988
2019-04-21T06:09:38.148Z,11.5255
2019-04-21T06:10:47.366Z,11.5122
2019-04-21T06:11:51.250Z,11.1196
2019-04-21T06:12:59.918Z,11.6964
2019-04-21T06:14:08.101Z,11.7231
2019-04-21T06:15:14.147Z,11.7098
2019-04-21T06:16:21.448Z,12.3880
2019-04-21T06:18:58.745Z,11.6537
2019-04-21T06:19:49.510Z,11.8379
2019-04-21T06:20:59.778Z,11.7552
2019-04-21T06:22:03.333Z,12.1904
2019-04-21T06:23:12.015Z,12.1050
2019-04-21T06:24:17.357Z,11.8540
2019-04-21T06:27:45.906Z,11.5255
2019-04-21T06:29:03.934Z,11.3867
2019-04-21T06:30:01.896Z,11.4855
2019-04-21T06:33:28.336Z,11.6670
2019-04-21T06:34:43.830Z,12.0356
2019-04-21T06:35:48.519Z,11.9795
2019-04-21T06:36:50.609Z,11.7231
2019-04-21T06:37:55.021Z,12.0356
2019-04-21T06:40:23.089Z,12.1477
2019-04-21T06:41:21.575Z,12.3880
2019-04-21T06:42:26.976Z,12.1771
2019-04-21T06:43:46.732Z,12.2171
2019-04-21T06:44:48.380Z,12.3720
2019-04-21T06:46:08.905Z,12.3880
2019-04-21T06:47:00.876Z,12.3159
2019-04-21T06:48:12.274Z,12.2171
2019-04-21T06:49:10.391Z,12.6844
2019-04-21T06:50:22.851Z,12.7966
2019-04-21T06:51:33.763Z,12.6017
2019-04-21T06:53:56.044Z,12.8687
2019-04-21T06:54:57.266Z,13.0930
2019-04-21T06:56:08.168Z,12.9809
2019-04-21T06:57:10.298Z,12.8820
2019-04-21T06:58:18.400Z,13.1811
2019-04-21T06:59:29.382Z,13.0636
2019-04-21T07:00:31.859Z,12.9809
2019-04-21T07:01:55.087Z,12.7138
2019-04-21T07:04:05.754Z,12.4895
2019-04-21T07:05:07.934Z,12.6844
2019-04-21T07:06:13.084Z,12.5856
2019-04-21T07:07:26.367Z,12.4735
2019-04-21T07:08:34.609Z,12.4147
2019-04-21T07:09:41.363Z,12.7138
2019-04-21T07:10:44.856Z,12.6711
2019-04-21T07:11:56.282Z,12.9381
2019-04-21T07:13:03.942Z,13.0503
2019-04-21T07:14:26.018Z,12.6711
2019-04-21T07:15:27.934Z,12.6284
2019-04-21T07:16:36.813Z,12.9248
2019-04-21T07:17:32.626Z,12.9942
2019-04-21T07:18:51.432Z,13.1384
2019-04-21T07:19:55.381Z,13.2372
2019-04-21T07:21:02.725Z,12.8954
2019-04-21T07:22:12.712Z,12.9942
2019-04-21T07:23:20.495Z,13.6164
2019-04-21T07:24:25.079Z,12.9809
2019-04-21T07:25:32.800Z,13.3066
2019-04-21T07:26:45.973Z,13.1517
2019-04-21T07:29:02.837Z,13.3921
2019-04-21T07:30:04.233Z,13.0236
2019-04-21T07:31:37.760Z,13.2078
2019-04-21T07:32:20.892Z,13.4749
2019-04-21T07:33:50.626Z,13.3921
2019-04-21T07:34:38.536Z,12.9114
2019-04-21T07:35:49.161Z,12.8553
2019-04-21T07:36:55.938Z,12.9675
2019-04-21T07:37:57.914Z,13.2212
2019-04-21T07:39:09.051Z,13.3627
2019-04-21T07:40:13.501Z,13.4615
2019-04-21T07:41:18.516Z,13.2933
2019-04-21T07:42:28.105Z,13.1090
2019-04-21T07:43:34.353Z,13.2933
2019-04-21T07:44:39.238Z,13.3627
2019-04-21T07:45:49.866Z,13.1945
2019-04-21T07:46:58.520Z,13.1250
2019-04-21T07:48:12.700Z,13.5603
2019-04-21T07:49:20.235Z,13.4188
2019-04-21T07:50:27.389Z,13.3627
2019-04-21T07:51:43.743Z,13.6992
2019-04-21T07:52:49.022Z,13.2212
2019-04-21T07:54:08.404Z,13.2372
2019-04-21T07:55:15.347Z,13.3627
2019-04-21T07:55:51.028Z,13.9555
2019-04-21T07:57:14.384Z,14.3347
2019-04-21T07:58:24.221Z,13.9555
2019-04-21T07:59:45.900Z,13.8994
2019-04-21T08:00:52.683Z,13.9982
2019-04-21T08:01:50.804Z,13.8861
2019-04-21T08:02:54.278Z,14.0543
2019-04-21T08:04:16.518Z,13.9982
2019-04-21T08:06:28.284Z,15.1251
2019-04-21T08:07:41.767Z,14.9569
2019-04-21T08:08:36.742Z,14.3641
2019-04-21T08:09:46.756Z,14.2653
2019-04-21T08:10:50.632Z,14.3214
2019-04-21T08:12:00.319Z,14.5911
2019-04-21T08:13:09.537Z,14.4495
2019-04-21T08:14:23.909Z,14.4629
2019-04-21T08:16:36.772Z,14.8180
2019-04-21T08:17:41.495Z,15.0290
2019-04-21T08:18:52.158Z,15.1411
2019-04-21T08:19:53.017Z,14.8020
2019-04-21T08:21:06.252Z,15.7046
2019-04-21T08:22:20.238Z,15.2827
2019-04-21T08:23:25.614Z,15.4669
2019-04-21T08:24:40.584Z,14.9996
2019-04-21T08:25:45.972Z,15.1545
2019-04-21T08:26:55.737Z,16.2573
2019-04-21T08:29:14.507Z,15.7206
2019-04-21T08:30:14.290Z,15.9609
2019-04-21T08:31:25.756Z,15.4803
2019-04-21T08:32:36.299Z,15.3948
2019-04-21T08:33:46.298Z,15.4936
2019-04-21T08:34:55.562Z,15.9049
2019-04-21T08:36:11.001Z,15.9743
2019-04-21T08:37:02.719Z,16.6098
2019-04-21T08:38:10.355Z,17.6406
2019-04-21T08:39:24.077Z,17.8382
2019-04-21T08:40:33.195Z,16.5537
2019-04-21T08:41:37.423Z,17.1439
2019-04-21T08:42:38.292Z,16.6098
2019-04-21T08:44:01.683Z,16.1025
2019-04-21T08:45:00.207Z,17.1038
2019-04-21T08:46:08.188Z,18.2334
2019-04-21T08:47:15.857Z,17.1866
2019-04-21T08:48:23.964Z,17.6406
2019-04-21T08:49:26.516Z,17.7794
2019-04-21T08:50:41.500Z,18.2200
2019-04-21T08:51:53.906Z,18.8689
2019-04-21T08:53:08.938Z,18.1479
2019-04-21T08:54:01.421Z,20.0973
2019-04-21T08:55:12.176Z,18.9677
2019-04-21T08:57:30.228Z,18.2334
2019-04-21T08:58:34.446Z,18.0358
2019-04-21T08:59:47.134Z,17.9530
2019-04-21T09:00:56.355Z,19.8837
2019-04-21T09:01:55.256Z,18.7568
2019-04-21T09:03:11.191Z,17.8222
2019-04-21T09:04:13.182Z,19.4751
2019-04-21T09:05:17.653Z,19.7715
2019-04-21T09:06:42.001Z,21.0746
2019-04-21T09:07:41.313Z,19.1093
2019-04-21T09:08:45.750Z,17.6112
2019-04-21T09:09:52.851Z,18.1079
2019-04-21T09:10:59.609Z,18.1640
2019-04-21T09:12:10.339Z,17.4002
2019-04-21T09:13:17.227Z,19.0665
2019-04-21T09:14:28.836Z,18.6713
2019-04-21T09:15:32.453Z,18.9250
2019-04-21T09:16:39.698Z,18.4871
2019-04-21T09:17:40.838Z,17.8649
2019-04-21T09:18:52.811Z,18.1079
2019-04-21T09:20:13.623Z,17.1172
2019-04-21T09:21:13.468Z,17.2614
2019-04-21T09:22:18.225Z,17.4296
2019-04-21T09:23:28.789Z,16.8502
2019-04-21T09:24:33.127Z,16.8208
2019-04-21T09:25:48.265Z,16.5831
2019-04-21T09:26:52.725Z,16.5084
2019-04-21T09:28:00.655Z,16.0731
2019-04-21T09:29:00.729Z,16.9490
2019-04-21T09:30:02.662Z,16.8929
2019-04-21T09:31:07.121Z,16.5244
2019-04-21T09:32:17.751Z,16.9329
2019-04-21T09:33:19.184Z,16.2013
2019-04-21T09:34:29.624Z,17.0050
2019-04-21T09:35:31.438Z,17.5685
2019-04-21T09:36:42.629Z,17.3575
2019-04-21T09:37:51.693Z,16.7514
2019-04-21T09:38:59.244Z,17.6112
2019-04-21T09:39:59.524Z,18.2200
2019-04-21T09:41:06.731Z,17.3575
2019-04-21T09:42:11.440Z,16.6819
2019-04-21T09:43:25.876Z,17.3308
2019-04-21T09:44:30.450Z,18.3322
2019-04-21T09:45:30.750Z,18.0224
2019-04-21T09:46:34.181Z,18.2334
2019-04-21T09:47:49.267Z,17.0878
2019-04-21T09:48:56.794Z,17.8382
2019-04-21T09:49:58.453Z,17.8782
2019-04-21T09:51:01.928Z,17.2320
2019-04-21T09:52:08.900Z,17.3308
2019-04-21T09:53:22.675Z,17.8088
2019-04-21T09:54:26.531Z,17.8222
2019-04-21T09:55:36.426Z,17.5845
2019-04-21T09:56:45.442Z,17.9664
2019-04-21T09:57:52.180Z,18.4577
2019-04-21T09:59:04.090Z,17.7661
2019-04-21T10:00:10.061Z,17.8649
2019-04-21T10:01:18.522Z,18.9811
2019-04-21T10:02:32.463Z,19.1653
2019-04-21T10:03:26.379Z,18.9944
2019-04-21T10:04:29.193Z,18.5298
2019-04-21T10:05:32.179Z,18.6019
2019-04-21T10:06:35.175Z,18.1212
2019-04-21T10:07:41.983Z,18.3883
2019-04-21T10:08:50.366Z,19.4350
2019-04-21T10:09:54.597Z,19.5472
2019-04-21T10:10:57.193Z,18.9811
2019-04-21T10:12:00.846Z,18.7274
2019-04-21T10:13:03.264Z,18.3455
2019-04-21T10:14:07.469Z,18.5698
2019-04-21T10:15:10.686Z,18.4871
2019-04-21T10:16:13.322Z,18.7568
2019-04-21T10:17:17.238Z,18.4443
2019-04-21T10:18:21.513Z,19.0932
2019-04-21T10:19:25.374Z,18.9811
2019-04-21T10:20:28.557Z,18.6286
2019-04-21T10:21:31.901Z,19.8837
2019-04-21T10:22:35.185Z,19.2348
2019-04-21T10:23:39.389Z,19.2481
2019-04-21T10:24:42.509Z,18.1212
2019-04-21T10:25:46.311Z,18.8983
2019-04-21T10:26:49.391Z,18.0518
2019-04-21T10:27:52.852Z,18.3589
2019-04-21T10:29:05.764Z,18.3749
2019-04-21T10:30:05.700Z,18.0091
2019-04-21T10:31:09.034Z,18.9117
2019-04-21T10:32:13.394Z,19.7288
2019-04-21T10:33:16.676Z,18.3749
2019-04-21T10:34:19.241Z,19.6860
2019-04-21T10:35:24.348Z,20.7462
2019-04-21T10:36:28.971Z,20.6767
2019-04-21T10:37:45.543Z,20.6634
2019-04-21T10:38:46.388Z,20.7755
2019-04-21T10:39:49.607Z,19.8276
2019-04-21T10:40:52.180Z,19.2214
2019-04-21T10:41:57.207Z,20.4498
2019-04-21T10:43:00.506Z,19.3629
2019-04-21T10:44:03.192Z,20.3082
2019-04-21T10:45:07.348Z,20.0412
2019-04-21T10:46:10.769Z,18.7835
2019-04-21T10:47:12.868Z,18.9117
2019-04-21T10:48:17.176Z,19.1493
2019-04-21T10:49:20.741Z,19.9718
2019-04-21T10:50:24.469Z,19.2214
2019-04-21T10:51:26.759Z,18.5859
2019-04-21T10:52:32.223Z,19.3069
2019-04-21T10:53:36.825Z,19.4617
2019-04-21T10:55:03.374Z,19.9130
2019-04-21T10:56:01.514Z,20.7195
2019-04-21T10:56:55.520Z,20.6767
2019-04-21T10:58:00.197Z,20.1827
2019-04-21T10:59:04.431Z,19.4751
2019-04-21T11:00:09.093Z,19.0372
2019-04-21T11:01:14.248Z,19.4751
2019-04-21T11:02:17.179Z,19.8970
2019-04-21T11:03:20.183Z,19.4751
2019-04-21T11:04:29.883Z,19.4617
2019-04-21T11:05:32.606Z,20.2094
2019-04-21T11:06:36.771Z,19.2775
2019-04-21T11:07:55.162Z,19.8970
2019-04-21T11:08:52.356Z,19.7288
2019-04-21T11:09:58.040Z,19.4057
2019-04-21T11:11:01.614Z,19.9397
2019-04-21T11:12:04.183Z,19.9557
2019-04-21T11:13:08.389Z,19.0932
2019-04-21T11:14:11.805Z,20.3510
2019-04-21T11:15:14.797Z,20.4765
2019-04-21T11:16:17.351Z,20.9438
2019-04-21T11:17:20.204Z,20.2094
2019-04-21T11:18:24.047Z,20.9438
2019-04-21T11:19:28.477Z,20.3376
2019-04-21T11:20:33.022Z,21.1013
2019-04-21T11:21:36.697Z,20.9171
2019-04-21T11:22:40.106Z,20.7195
2019-04-21T11:23:43.868Z,19.9130
2019-04-21T11:24:47.201Z,20.6634
2019-04-21T11:25:51.711Z,20.4364
2019-04-21T11:26:55.834Z,20.3777
2019-04-21T11:28:00.579Z,19.4350
2019-04-21T11:29:05.099Z,20.2655
2019-04-21T11:30:09.533Z,20.3937
2019-04-21T11:31:13.260Z,20.7195
2019-04-21T11:32:16.891Z,20.6634
2019-04-21T11:33:21.331Z,20.5619
2019-04-21T11:34:25.211Z,20.2815
2019-04-21T11:35:28.825Z,19.8569
2019-04-21T11:36:31.333Z,19.5178
2019-04-21T11:37:34.620Z,20.3643
2019-04-21T11:38:55.324Z,21.3684
2019-04-21T11:39:54.564Z,20.3376
2019-04-21T11:40:53.983Z,20.0706
2019-04-21T11:41:59.630Z,20.2255
2019-04-21T11:43:02.189Z,21.4538
2019-04-21T11:44:05.173Z,20.1827
2019-04-21T11:45:10.507Z,21.3977
2019-04-21T11:46:13.180Z,20.8183
2019-04-21T11:47:18.476Z,21.0746
2019-04-21T11:48:21.940Z,21.2989
2019-04-21T11:49:27.634Z,21.5232
2019-04-21T11:50:35.013Z,20.9731
2019-04-21T11:51:38.177Z,20.4498
2019-04-21T11:52:43.099Z,20.8877
2019-04-21T11:53:46.712Z,20.4925
2019-04-21T11:54:50.949Z,20.4364
2019-04-21T11:55:55.554Z,22.3163
2019-04-21T11:57:01.777Z,21.6381
2019-04-21T11:58:07.722Z,21.6114
2019-04-21T11:59:12.007Z,21.9051
2019-04-21T12:00:15.754Z,22.6848
2019-04-21T12:01:18.832Z,22.4712
2019-04-21T12:02:21.560Z,21.8490
2019-04-21T12:03:24.771Z,21.2429
2019-04-21T12:04:27.503Z,22.2042
2019-04-21T12:05:30.167Z,22.9652
2019-04-21T12:06:40.959Z,23.5580
2019-04-21T12:07:43.097Z,24.7490
2019-04-21T12:08:49.445Z,22.8103
2019-04-21T12:09:55.395Z,24.4633
2019-04-21T12:10:58.191Z,22.5540
2019-04-21T12:12:01.275Z,23.8144
2019-04-21T12:13:07.233Z,24.4072
2019-04-21T12:14:09.988Z,23.2082
2019-04-21T12:15:14.284Z,22.8531
2019-04-21T12:16:17.198Z,22.2042
2019-04-21T12:17:20.961Z,22.7970
2019-04-21T12:18:27.820Z,24.1134
2019-04-21T12:19:32.956Z,22.7409
2019-04-21T12:20:37.550Z,22.2175
2019-04-21T12:21:53.446Z,22.4979
2019-04-21T12:22:50.977Z,22.9091
2019-04-21T12:23:54.379Z,23.7022
2019-04-21T12:24:57.702Z,24.7490
2019-04-21T12:26:01.373Z,24.8051
2019-04-21T12:27:05.644Z,23.2216
2019-04-21T12:28:08.216Z,23.3764
2019-04-21T12:29:11.177Z,22.5406
2019-04-21T12:30:15.708Z,22.9091
2019-04-21T12:31:18.795Z,23.8010
2019-04-21T12:32:22.217Z,24.6769
2019-04-21T12:33:24.417Z,23.5767
2019-04-21T12:34:28.088Z,22.9946
2019-04-21T12:35:31.201Z,22.9652
2019-04-21T12:36:38.475Z,23.1521
2019-04-21T12:37:42.650Z,22.1054
2019-04-21T12:38:53.937Z,21.6808
2019-04-21T12:39:56.852Z,22.0333
2019-04-21T12:41:00.489Z,21.5660
2019-04-21T12:42:03.204Z,21.4538
2019-04-21T12:43:06.812Z,21.7662
2019-04-21T12:44:10.805Z,21.5232
2019-04-21T12:45:15.262Z,22.1054
2019-04-21T12:46:18.293Z,22.6848
2019-04-21T12:47:21.765Z,22.2736
2019-04-21T12:48:24.199Z,22.5994
2019-04-21T12:49:27.593Z,21.5366
2019-04-21T12:50:30.225Z,22.4018
2019-04-21T12:51:33.756Z,22.6982
2019-04-21T12:52:35.721Z,22.6554
2019-04-21T12:53:39.396Z,22.5994
2019-04-21T12:54:43.930Z,21.7929
2019-04-21T12:55:48.111Z,21.6941
2019-04-21T12:56:51.710Z,21.5820
2019-04-21T12:57:55.241Z,22.6554
2019-04-21T12:58:59.445Z,23.0961
2019-04-21T13:00:02.870Z,22.7409
2019-04-21T13:01:07.100Z,23.5313
2019-04-21T13:02:32.209Z,23.8998
2019-04-21T13:03:35.194Z,22.5860
2019-04-21T13:04:38.202Z,22.3457
2019-04-21T13:05:41.192Z,23.3204
2019-04-21T13:06:45.595Z,24.0120
2019-04-21T13:08:09.323Z,23.5580
2019-04-21T13:09:14.990Z,23.5313
2019-04-21T13:10:20.357Z,22.8664
2019-04-21T13:11:23.414Z,23.2643
2019-04-21T13:12:26.920Z,23.2509
2019-04-21T13:13:32.101Z,23.1094
2019-04-21T13:14:35.830Z,24.0547
2019-04-21T13:15:39.802Z,23.7583
2019-04-21T13:16:43.454Z,24.0707
2019-04-21T13:17:47.353Z,22.5139
2019-04-21T13:18:51.223Z,24.2817
2019-04-21T13:19:54.108Z,22.8103
2019-04-21T13:20:59.392Z,22.7542
2019-04-21T13:22:05.876Z,23.9693
2019-04-21T13:23:10.127Z,23.7449
2019-04-21T13:24:13.744Z,25.0294
2019-04-21T13:25:16.186Z,24.1962
2019-04-21T13:26:30.554Z,24.8318
2019-04-21T13:27:27.193Z,25.0748
2019-04-21T13:28:32.469Z,24.8478
2019-04-21T13:29:36.360Z,25.0294
2019-04-21T13:30:40.198Z,24.2950
2019-04-21T13:31:44.419Z,23.5767
2019-04-21T13:32:47.215Z,23.5901
2019-04-21T13:33:50.324Z,23.7022
2019-04-21T13:34:53.186Z,23.8998
2019-04-21T13:35:57.221Z,22.3297
2019-04-21T13:37:01.417Z,22.7409
2019-04-21T13:38:04.683Z,23.3070
2019-04-21T13:39:37.792Z,23.2216
2019-04-21T13:40:34.151Z,22.8824
2019-04-21T13:41:40.878Z,22.2469
2019-04-21T13:42:38.356Z,23.1521
2019-04-21T13:43:39.310Z,22.4418
2019-04-21T13:44:42.199Z,22.1481
2019-04-21T13:45:45.821Z,22.8824
2019-04-21T13:46:49.191Z,22.7970
2019-04-21T13:47:52.637Z,22.8958
2019-04-21T13:48:55.187Z,22.8664
2019-04-21T13:49:59.854Z,22.8824
2019-04-21T13:51:05.037Z,23.6034
2019-04-21T13:52:08.944Z,23.8437
2019-04-21T13:53:12.481Z,23.6889
2019-04-21T13:54:15.696Z,22.6154
2019-04-21T13:55:19.371Z,22.5540
2019-04-21T13:56:22.713Z,22.0172
2019-04-21T13:57:26.329Z,22.6715
2019-04-21T13:58:30.367Z,22.8664
2019-04-21T13:59:34.285Z,22.6154
2019-04-21T14:00:37.955Z,23.3898
2019-04-21T14:01:41.823Z,22.8824
2019-04-21T14:02:44.781Z,22.9519
2019-04-21T14:03:47.447Z,23.9559
2019-04-21T14:04:51.665Z,23.3337
2019-04-21T14:05:54.236Z,22.5994
2019-04-21T14:06:58.292Z,24.1962
2019-04-21T14:08:01.193Z,23.5901
2019-04-21T14:09:05.271Z,23.0079
2019-04-21T14:10:10.418Z,23.2349
2019-04-21T14:11:15.582Z,23.6461
2019-04-21T14:12:19.205Z,23.7316
2019-04-21T14:13:22.870Z,23.3764
2019-04-21T14:14:26.174Z,24.0547
2019-04-21T14:15:30.304Z,23.3631
2019-04-21T14:16:34.057Z,23.2349
2019-04-21T14:17:39.122Z,22.7115
2019-04-21T14:18:42.669Z,23.1949
2019-04-21T14:19:45.591Z,23.0667
2019-04-21T14:20:47.193Z,22.8263
2019-04-21T14:21:52.734Z,23.3631
2019-04-21T14:23:08.557Z,23.5901
2019-04-21T14:24:04.584Z,24.1695
2019-04-21T14:25:07.941Z,23.0507
2019-04-21T14:26:11.973Z,22.6848
2019-04-21T14:27:16.347Z,22.7703
2019-04-21T14:28:19.966Z,23.2216
2019-04-21T14:29:23.866Z,22.9946
2019-04-21T14:30:28.408Z,23.3471
2019-04-21T14:31:32.321Z,23.1521